Time;durP1;ratioP1;P1;durP2;ratioP2;P2;SDS_P1;SDS_P2;PMS_P1;PMS_P2;Temp;Humidity;BMP_temperature;BMP_pressure;BME280_temperature;BME280_humidity;BME280_pressure;Samples;Min_cycle;Max_cycle;Signal;HPM_P1;HPM_P2
2022/01/06 00:04:53;;;;;;;11.85;2.40;;;;;;;;;;1276708;23;20477;-91
2022/01/06 00:07:22;;;;;;;8.55;2.00;;;;;;;;;;4948357;29;20119;-94
2022/01/06 00:09:52;;;;;;;8.82;2.10;;;;;;;;;;4951125;29;20015;-94
2022/01/06 00:12:27;;;;;;;9.07;2.55;;;;;;;;;;4951176;29;20012;-94
2022/01/06 00:15:03;;;;;;;6.78;2.15;;;;;;;;;;4942497;29;20043;-94
2022/01/06 00:18:08;;;;;;;8.27;2.17;;;;;;;;;;4943229;29;20361;-94
2022/01/06 00:28:15;;;;;;;6.65;2.30;;;;;;;;;;4964103;28;19990;-94
2022/01/06 00:30:40;;;;;;;7.45;2.63;;;;;;;;;;4968303;23;20185;-94
2022/01/06 00:33:10;;;;;;;8.45;2.83;;;;;;;;;;4947681;29;20775;-94
2022/01/06 00:35:38;;;;;;;6.80;3.25;;;;;;;;;;4950767;29;20067;-94
2022/01/06 00:38:07;;;;;;;6.30;3.35;;;;;;;;;;4948617;29;20042;-94
2022/01/06 00:40:33;;;;;;;6.70;3.28;;;;;;;;;;4952162;29;20129;-94
2022/01/06 00:42:59;;;;;;;6.88;3.67;;;;;;;;;;4950471;29;20031;-94
2022/01/06 00:50:27;;;;;;;11.38;4.72;;;;;;;;;;4967124;29;20051;-94
2022/01/06 00:52:52;;;;;;;7.35;3.72;;;;;;;;;;4965352;23;20028;-94
2022/01/06 00:55:18;;;;;;;7.10;3.05;;;;;;;;;;4953140;29;20046;-94
2022/01/06 01:00:27;;;;;;;8.38;3.42;;;;;;;;;;5032718;23;20059;-94
2022/01/06 01:03:16;;;;;;;10.95;3.40;;;;;;;;;;5122924;23;20019;-95
2022/01/06 01:20:12;;;;;;;10.82;2.83;;;;;;;;;;6237742;22;20028;-93
2022/01/06 01:25:13;;;;;;;6.88;2.53;;;;;;;;;;6270600;22;20076;-94
2022/01/06 01:27:42;;;;;;;6.93;2.45;;;;;;;;;;6243143;23;20356;-95
2022/01/06 01:30:14;;;;;;;11.00;2.53;;;;;;;;;;6207066;23;20005;-95
2022/01/06 01:32:40;;;;;;;8.30;2.38;;;;;;;;;;6207042;23;20000;-95
2022/01/06 01:35:08;;;;;;;11.73;3.00;;;;;;;;;;6207324;23;20008;-94
2022/01/06 01:37:34;;;;;;;6.45;1.80;;;;;;;;;;6217276;23;20015;-94
2022/01/06 01:39:59;;;;;;;6.68;1.83;;;;;;;;;;6214303;23;20027;-94
2022/01/06 01:42:28;;;;;;;10.10;1.90;;;;;;;;;;6233182;23;20023;-94
2022/01/06 01:44:54;;;;;;;4.15;1.80;;;;;;;;;;6204794;23;20000;-94
2022/01/06 01:47:30;;;;;;;7.65;2.20;;;;;;;;;;6205121;23;20378;-94
2022/01/06 01:50:10;;;;;;;3.58;1.60;;;;;;;;;;6205686;23;20132;-94
2022/01/06 01:52:35;;;;;;;5.70;1.65;;;;;;;;;;6208628;23;20008;-94
2022/01/06 01:55:01;;;;;;;9.35;1.40;;;;;;;;;;6211262;23;20000;-95
2022/01/06 01:57:26;;;;;;;6.88;1.67;;;;;;;;;;6214200;23;20008;-94
2022/01/06 01:59:51;;;;;;;2.95;1.17;;;;;;;;;;6207092;23;20166;-94
2022/01/06 02:02:17;;;;;;;4.55;1.58;;;;;;;;;;6204130;23;20058;-94
2022/01/06 02:04:42;;;;;;;5.82;1.85;;;;;;;;;;6213699;23;19988;-94
2022/01/06 02:07:08;;;;;;;8.73;2.80;;;;;;;;;;6220321;23;20432;-94
2022/01/06 02:09:33;;;;;;;7.18;1.98;;;;;;;;;;6204838;23;20001;-94
2022/01/06 02:12:10;;;;;;;7.07;2.65;;;;;;;;;;6234243;23;20001;-94
2022/01/06 02:14:37;;;;;;;10.85;3.17;;;;;;;;;;6213004;23;20142;-94
2022/01/06 02:17:03;;;;;;;11.68;3.20;;;;;;;;;;6205448;23;20421;-94
2022/01/06 02:19:28;;;;;;;9.85;3.88;;;;;;;;;;6206228;23;20003;-95
2022/01/06 02:21:54;;;;;;;5.55;2.33;;;;;;;;;;6236276;23;19999;-94
2022/01/06 02:24:19;;;;;;;9.02;2.40;;;;;;;;;;6211412;23;20027;-94
2022/01/06 02:26:45;;;;;;;4.25;1.80;;;;;;;;;;6206595;23;20024;-94
2022/01/06 02:29:10;;;;;;;3.33;1.75;;;;;;;;;;6198505;23;20004;-94
2022/01/06 02:31:46;;;;;;;9.48;2.17;;;;;;;;;;6196937;23;20024;-94
2022/01/06 02:34:12;;;;;;;5.43;1.80;;;;;;;;;;6198919;23;20095;-94
2022/01/06 02:36:39;;;;;;;7.40;1.88;;;;;;;;;;6197599;23;20036;-94
2022/01/06 02:49:44;;;;;;;7.47;2.38;;;;;;;;;;6262897;22;20064;-94
2022/01/06 02:52:09;;;;;;;7.20;1.95;;;;;;;;;;6262750;23;20005;-93
2022/01/06 02:54:36;;;;;;;4.60;1.95;;;;;;;;;;6226965;23;20102;-94
2022/01/06 02:57:03;;;;;;;4.95;1.67;;;;;;;;;;6252267;23;20306;-93
2022/01/06 02:59:28;;;;;;;5.78;2.28;;;;;;;;;;6228571;23;20383;-94
2022/01/06 03:01:54;;;;;;;6.20;1.80;;;;;;;;;;6228100;23;20004;-93
2022/01/06 03:04:20;;;;;;;5.68;1.88;;;;;;;;;;6227260;23;20003;-94
2022/01/06 03:06:46;;;;;;;8.15;2.28;;;;;;;;;;6227101;23;20026;-94
2022/01/06 03:09:11;;;;;;;4.60;1.85;;;;;;;;;;6226711;23;20355;-94
2022/01/06 03:11:41;;;;;;;8.43;2.45;;;;;;;;;;6224618;23;20004;-93
2022/01/06 03:14:07;;;;;;;8.90;2.00;;;;;;;;;;6251811;22;20003;-94
2022/01/06 03:16:32;;;;;;;5.35;2.20;;;;;;;;;;6225020;23;20004;-93
2022/01/06 03:18:58;;;;;;;6.30;1.85;;;;;;;;;;6224408;23;20004;-94
2022/01/06 03:21:23;;;;;;;10.10;2.00;;;;;;;;;;6251575;23;19996;-93
2022/01/06 03:23:48;;;;;;;8.68;2.92;;;;;;;;;;6224163;23;20016;-93
2022/01/06 03:26:14;;;;;;;9.82;2.63;;;;;;;;;;6233066;23;20000;-94
2022/01/06 03:28:41;;;;;;;9.73;2.05;;;;;;;;;;6231746;23;20030;-94
2022/01/06 03:31:09;;;;;;;10.07;2.30;;;;;;;;;;6251033;23;20083;-93
2022/01/06 03:33:35;;;;;;;8.80;2.10;;;;;;;;;;6227512;23;20000;-94
2022/01/06 03:36:01;;;;;;;9.77;1.95;;;;;;;;;;6227623;23;20027;-94
2022/01/06 03:38:26;;;;;;;3.17;1.73;;;;;;;;;;6225130;23;20007;-94
2022/01/06 03:40:52;;;;;;;6.32;2.10;;;;;;;;;;6225218;23;20003;-94
2022/01/06 03:43:17;;;;;;;6.07;2.63;;;;;;;;;;6227217;23;20008;-94
2022/01/06 03:45:43;;;;;;;8.15;2.28;;;;;;;;;;6225818;23;20004;-94
2022/01/06 03:48:10;;;;;;;9.80;3.03;;;;;;;;;;6252883;23;20000;-94
2022/01/06 03:50:35;;;;;;;7.05;2.33;;;;;;;;;;6253929;23;20051;-94
2022/01/06 03:53:02;;;;;;;8.20;2.15;;;;;;;;;;6254879;22;20008;-94
2022/01/06 03:55:29;;;;;;;5.72;2.25;;;;;;;;;;6265789;23;19980;-94
2022/01/06 03:57:57;;;;;;;5.13;2.50;;;;;;;;;;6230624;22;20007;-94
2022/01/06 04:00:22;;;;;;;7.18;2.63;;;;;;;;;;6255479;23;20003;-94
2022/01/06 04:02:53;;;;;;;6.35;2.95;;;;;;;;;;6261522;22;20002;-94
2022/01/06 04:05:20;;;;;;;11.07;2.80;;;;;;;;;;6273428;22;20004;-93
2022/01/06 04:07:45;;;;;;;7.28;3.35;;;;;;;;;;6231629;22;20077;-94
2022/01/06 04:10:11;;;;;;;7.07;2.88;;;;;;;;;;6230008;23;20004;-94
2022/01/06 04:12:43;;;;;;;9.07;2.40;;;;;;;;;;6260647;23;20003;-94
2022/01/06 04:15:13;;;;;;;5.88;2.95;;;;;;;;;;6261947;23;20096;-94
2022/01/06 04:17:40;;;;;;;10.18;3.10;;;;;;;;;;6260944;23;20003;-94
2022/01/06 04:20:07;;;;;;;8.57;3.03;;;;;;;;;;6259152;23;20000;-95
2022/01/06 04:22:35;;;;;;;6.13;2.80;;;;;;;;;;6256598;23;20003;-94
2022/01/06 04:25:07;;;;;;;6.40;2.97;;;;;;;;;;6250231;23;20030;-93
2022/01/06 04:27:32;;;;;;;6.43;3.10;;;;;;;;;;6228788;23;19996;-94
2022/01/06 04:29:58;;;;;;;6.82;3.83;;;;;;;;;;6254042;23;20000;-94
2022/01/06 04:32:23;;;;;;;7.38;3.25;;;;;;;;;;6245996;23;20003;-93
2022/01/06 04:34:49;;;;;;;7.47;2.78;;;;;;;;;;6233335;23;20007;-94
2022/01/06 04:37:14;;;;;;;9.00;2.65;;;;;;;;;;6258564;23;20015;-94
2022/01/06 04:39:39;;;;;;;8.38;3.20;;;;;;;;;;6233698;23;19996;-94
2022/01/06 04:42:05;;;;;;;13.45;3.75;;;;;;;;;;6227448;23;20005;-94
2022/01/06 04:44:30;;;;;;;10.05;4.13;;;;;;;;;;6226553;23;20079;-94
2022/01/06 04:46:55;;;;;;;7.40;4.30;;;;;;;;;;6258453;23;20688;-93
2022/01/06 04:49:22;;;;;;;7.15;2.90;;;;;;;;;;6222706;23;20000;-93
2022/01/06 04:51:52;;;;;;;11.70;4.78;;;;;;;;;;6227398;23;20007;-94
2022/01/06 04:54:20;;;;;;;9.00;3.65;;;;;;;;;;6262127;22;20053;-94
2022/01/06 04:56:45;;;;;;;7.85;3.50;;;;;;;;;;6238202;23;20007;-94
2022/01/06 04:59:11;;;;;;;7.47;3.28;;;;;;;;;;6234383;23;20079;-94
2022/01/06 05:01:37;;;;;;;9.40;3.47;;;;;;;;;;6231108;23;20004;-94
2022/01/06 05:04:03;;;;;;;6.55;3.00;;;;;;;;;;6233073;23;20027;-94
2022/01/06 05:06:29;;;;;;;6.28;3.30;;;;;;;;;;6242083;22;20023;-94
2022/01/06 05:08:54;;;;;;;13.43;4.78;;;;;;;;;;6238819;22;20066;-94
2022/01/06 05:11:20;;;;;;;10.77;3.60;;;;;;;;;;6235161;23;20000;-94
2022/01/06 05:13:46;;;;;;;8.70;3.05;;;;;;;;;;6233955;23;20000;-94
2022/01/06 05:16:11;;;;;;;17.75;3.65;;;;;;;;;;6233321;23;20091;-94
2022/01/06 05:18:39;;;;;;;9.52;3.80;;;;;;;;;;6232287;23;20004;-94
2022/01/06 05:21:05;;;;;;;10.60;3.65;;;;;;;;;;6232155;23;20031;-94
2022/01/06 05:23:32;;;;;;;11.43;4.00;;;;;;;;;;6232249;23;20383;-94
2022/01/06 05:25:58;;;;;;;8.48;3.72;;;;;;;;;;6225719;23;20000;-93
2022/01/06 05:28:23;;;;;;;8.18;3.63;;;;;;;;;;6226439;23;20375;-93
2022/01/06 05:30:48;;;;;;;12.98;4.53;;;;;;;;;;6221183;23;20004;-94
2022/01/06 05:33:14;;;;;;;14.27;5.28;;;;;;;;;;6220631;23;20007;-93
2022/01/06 05:35:39;;;;;;;12.00;4.53;;;;;;;;;;6220489;23;20032;-93
2022/01/06 05:38:04;;;;;;;12.45;4.28;;;;;;;;;;6220998;22;20001;-94
2022/01/06 05:40:29;;;;;;;10.90;4.65;;;;;;;;;;6220642;23;20099;-93
2022/01/06 05:42:56;;;;;;;6.63;3.13;;;;;;;;;;6217797;22;20019;-93
2022/01/06 05:45:22;;;;;;;11.40;5.32;;;;;;;;;;6228877;23;20499;-94
2022/01/06 05:50:16;;;;;;;8.40;3.65;;;;;;;;;;6247110;22;20032;-93
2022/01/06 05:52:41;;;;;;;13.60;5.32;;;;;;;;;;6223439;23;20135;-94
2022/01/06 05:55:11;;;;;;;8.00;4.63;;;;;;;;;;6223205;23;20091;-94
2022/01/06 05:57:43;;;;;;;13.07;5.10;;;;;;;;;;6254281;23;20004;-94
2022/01/06 06:00:09;;;;;;;10.55;5.15;;;;;;;;;;6254835;23;20017;-94
2022/01/06 06:02:35;;;;;;;14.57;5.80;;;;;;;;;;6257751;23;20428;-94
2022/01/06 06:05:00;;;;;;;18.58;5.22;;;;;;;;;;6260784;23;20000;-94
2022/01/06 06:07:26;;;;;;;14.60;7.38;;;;;;;;;;6257902;23;20008;-94
2022/01/06 06:09:52;;;;;;;13.88;6.53;;;;;;;;;;6258749;23;20011;-94
2022/01/06 06:12:17;;;;;;;14.65;4.72;;;;;;;;;;6232834;23;20301;-93
2022/01/06 06:17:13;;;;;;;13.63;5.55;;;;;;;;;;6220957;22;20492;-94
2022/01/06 06:22:10;;;;;;;10.75;6.60;;;;;;;;;;6257984;22;20413;-94
2022/01/06 06:24:33;;;;;;;14.30;5.65;;;;;;;;;;6253430;22;20032;-94
2022/01/06 06:26:59;;;;;;;10.55;3.97;;;;;;;;;;6233835;23;20000;-94
2022/01/06 19:10:39;;;;;;;21.70;4.57;;;;;;;;;;6236543;22;20042;-89
2022/01/06 19:13:05;;;;;;;18.58;4.00;;;;;;;;;;6247949;22;20412;-90
2022/01/06 19:15:30;;;;;;;17.25;4.40;;;;;;;;;;6246479;23;20440;-90
2022/01/06 19:18:01;;;;;;;16.20;4.78;;;;;;;;;;6255964;22;19980;-89
2022/01/06 19:20:26;;;;;;;21.73;4.47;;;;;;;;;;6227446;22;20004;-89
2022/01/06 19:22:52;;;;;;;13.57;4.43;;;;;;;;;;6221071;22;20008;-89
2022/01/06 19:25:17;;;;;;;19.15;5.85;;;;;;;;;;6247870;23;20071;-89
2022/01/06 19:27:43;;;;;;;17.63;4.70;;;;;;;;;;6221014;22;19996;-89
2022/01/06 19:30:09;;;;;;;18.52;5.32;;;;;;;;;;6246342;23;20482;-89
2022/01/06 19:32:35;;;;;;;19.17;5.55;;;;;;;;;;6247888;23;20720;-89
2022/01/06 19:35:00;;;;;;;15.40;4.47;;;;;;;;;;6246647;23;20802;-89
2022/01/06 19:37:26;;;;;;;17.25;4.93;;;;;;;;;;6247774;23;20004;-90
2022/01/06 19:39:52;;;;;;;15.32;4.85;;;;;;;;;;6220794;23;20057;-89
2022/01/06 19:42:17;;;;;;;16.02;4.72;;;;;;;;;;6220936;23;20030;-89
2022/01/06 19:44:42;;;;;;;16.65;5.45;;;;;;;;;;6247708;22;20308;-89
2022/01/06 19:47:07;;;;;;;22.52;5.57;;;;;;;;;;6247423;23;20055;-89
2022/01/06 19:49:32;;;;;;;17.35;5.75;;;;;;;;;;6220555;23;20004;-89
2022/01/06 19:51:58;;;;;;;16.40;6.45;;;;;;;;;;6247786;23;19988;-88
2022/01/06 19:54:23;;;;;;;12.02;5.57;;;;;;;;;;6220583;23;20002;-88
2022/01/06 19:56:48;;;;;;;23.10;5.65;;;;;;;;;;6247156;23;20034;-88
2022/01/06 19:59:18;;;;;;;15.70;5.07;;;;;;;;;;6220590;23;19992;-89
2022/01/06 20:01:44;;;;;;;17.70;5.53;;;;;;;;;;6247402;23;20064;-88
2022/01/06 20:04:09;;;;;;;15.30;5.57;;;;;;;;;;6248688;23;20000;-89
2022/01/06 20:06:34;;;;;;;19.03;5.47;;;;;;;;;;6220355;23;20015;-89
2022/01/06 20:08:59;;;;;;;17.73;5.88;;;;;;;;;;6220358;23;20737;-88
2022/01/06 20:11:25;;;;;;;25.95;6.80;;;;;;;;;;6220129;23;20003;-88
2022/01/06 20:13:50;;;;;;;22.47;6.53;;;;;;;;;;6246992;22;20016;-89
2022/01/06 20:16:15;;;;;;;27.20;7.68;;;;;;;;;;6220629;23;20259;-89
2022/01/06 20:18:40;;;;;;;22.50;6.25;;;;;;;;;;6247179;22;19996;-89
2022/01/06 20:21:06;;;;;;;20.38;6.22;;;;;;;;;;6246700;23;20103;-89
2022/01/06 20:23:31;;;;;;;24.92;7.15;;;;;;;;;;6220490;23;20054;-88
2022/01/06 20:25:56;;;;;;;16.92;6.53;;;;;;;;;;6247158;23;19996;-88
2022/01/06 20:28:24;;;;;;;22.85;6.53;;;;;;;;;;6246955;22;20428;-88
2022/01/06 20:30:53;;;;;;;25.15;7.38;;;;;;;;;;6220625;23;20084;-88
2022/01/06 20:33:20;;;;;;;15.90;5.28;;;;;;;;;;6246802;22;20000;-88
2022/01/06 20:35:45;;;;;;;24.60;7.25;;;;;;;;;;6246919;23;20000;-88
2022/01/06 20:38:10;;;;;;;32.05;8.18;;;;;;;;;;6252649;22;20032;-89
2022/01/06 20:40:35;;;;;;;20.57;7.57;;;;;;;;;;6256117;23;20000;-89
2022/01/06 20:43:01;;;;;;;30.23;9.10;;;;;;;;;;6222186;22;20219;-89
2022/01/06 20:45:28;;;;;;;19.88;7.20;;;;;;;;;;6220500;23;19996;-88
2022/01/06 20:48:01;;;;;;;30.45;9.70;;;;;;;;;;6245532;22;20054;-88
2022/01/06 20:53:15;;;;;;;23.92;9.30;;;;;;;;;;6246859;22;20443;-89
2022/01/06 20:55:42;;;;;;;26.08;8.50;;;;;;;;;;6246972;23;20412;-89
2022/01/06 20:58:08;;;;;;;32.05;9.95;;;;;;;;;;6246727;22;20079;-89
2022/01/06 21:00:34;;;;;;;23.90;9.77;;;;;;;;;;6245589;23;20035;-89
2022/01/06 21:02:59;;;;;;;28.52;8.73;;;;;;;;;;6246880;22;20023;-89
2022/01/06 21:05:25;;;;;;;41.97;10.05;;;;;;;;;;6220072;23;19993;-89
2022/01/06 21:07:50;;;;;;;37.88;10.10;;;;;;;;;;6220205;22;20000;-89
2022/01/06 21:10:16;;;;;;;34.70;9.88;;;;;;;;;;6246715;23;20739;-89
2022/01/06 21:12:41;;;;;;;25.75;9.57;;;;;;;;;;6247064;23;20000;-89
2022/01/06 21:15:07;;;;;;;28.73;9.43;;;;;;;;;;6245756;23;20019;-90
2022/01/06 21:17:32;;;;;;;33.97;9.48;;;;;;;;;;6253299;23;20005;-89
2022/01/06 21:19:57;;;;;;;32.75;10.77;;;;;;;;;;6220826;23;19996;-90
2022/01/06 21:22:22;;;;;;;34.80;8.82;;;;;;;;;;6220073;23;20000;-89
2022/01/06 21:24:47;;;;;;;31.87;8.33;;;;;;;;;;6247013;22;19996;-89
2022/01/06 21:27:13;;;;;;;43.75;9.15;;;;;;;;;;6220830;23;20235;-90
2022/01/06 21:29:38;;;;;;;30.77;9.00;;;;;;;;;;6247158;22;19996;-90
2022/01/06 21:32:04;;;;;;;33.85;9.40;;;;;;;;;;6220509;23;20031;-90
2022/01/06 21:34:29;;;;;;;33.50;9.90;;;;;;;;;;6249151;22;20004;-90
2022/01/06 21:36:54;;;;;;;27.65;8.77;;;;;;;;;;6221717;23;20012;-90
2022/01/06 21:39:19;;;;;;;37.45;9.57;;;;;;;;;;6249281;22;20118;-90
2022/01/06 21:41:45;;;;;;;45.60;9.65;;;;;;;;;;6247163;23;20023;-90
2022/01/06 21:44:11;;;;;;;39.47;10.35;;;;;;;;;;6249399;22;20007;-90
2022/01/06 21:46:37;;;;;;;32.03;9.77;;;;;;;;;;6224564;23;20007;-89
2022/01/06 21:49:02;;;;;;;34.55;10.15;;;;;;;;;;6248060;22;20046;-89
2022/01/06 21:51:29;;;;;;;35.22;10.05;;;;;;;;;;6220933;23;20004;-90
2022/01/06 21:53:55;;;;;;;34.22;9.45;;;;;;;;;;6225464;23;20501;-89
2022/01/06 21:56:21;;;;;;;34.28;10.82;;;;;;;;;;6248346;23;20111;-90
2022/01/06 21:58:46;;;;;;;37.75;9.48;;;;;;;;;;6217544;23;20085;-90
2022/01/06 22:01:11;;;;;;;38.47;9.93;;;;;;;;;;6244619;23;20004;-90
2022/01/06 22:03:36;;;;;;;36.50;9.82;;;;;;;;;;6217379;23;20409;-89
2022/01/06 22:06:04;;;;;;;40.63;10.52;;;;;;;;;;6244361;23;20568;-88
2022/01/06 22:08:30;;;;;;;32.03;11.55;;;;;;;;;;6217398;23;20024;-89
2022/01/06 22:10:55;;;;;;;40.83;11.15;;;;;;;;;;6245515;23;20023;-89
2022/01/06 22:13:20;;;;;;;36.17;9.93;;;;;;;;;;6244167;22;20007;-89
2022/01/06 22:15:49;;;;;;;33.70;11.05;;;;;;;;;;6244828;23;20008;-89
2022/01/06 22:18:14;;;;;;;34.38;10.27;;;;;;;;;;6217130;23;20610;-89
2022/01/06 22:20:39;;;;;;;41.88;10.80;;;;;;;;;;6244834;23;20020;-89
2022/01/06 22:23:04;;;;;;;33.35;9.82;;;;;;;;;;6217182;22;20103;-89
2022/01/06 22:25:30;;;;;;;44.80;11.00;;;;;;;;;;6244214;23;20004;-89
2022/01/06 22:27:55;;;;;;;33.25;10.70;;;;;;;;;;6217096;22;20004;-89
2022/01/06 22:30:20;;;;;;;29.33;10.73;;;;;;;;;;6246105;23;20071;-89
2022/01/06 22:32:45;;;;;;;38.05;10.80;;;;;;;;;;6217904;22;20555;-89
2022/01/06 22:35:17;;;;;;;34.42;10.35;;;;;;;;;;6217199;23;20008;-89
2022/01/06 22:37:43;;;;;;;51.67;13.55;;;;;;;;;;6217119;22;20008;-88
2022/01/06 22:40:08;;;;;;;42.75;12.70;;;;;;;;;;6217143;23;19996;-89
2022/01/06 22:42:33;;;;;;;39.30;10.35;;;;;;;;;;6244136;23;20012;-89
2022/01/06 22:44:58;;;;;;;41.30;12.65;;;;;;;;;;6244178;22;20000;-89
2022/01/06 22:47:24;;;;;;;44.88;12.32;;;;;;;;;;6216962;23;20011;-89
2022/01/06 22:49:49;;;;;;;44.53;13.10;;;;;;;;;;6244397;22;19996;-89
2022/01/06 22:52:14;;;;;;;39.53;12.85;;;;;;;;;;6217723;23;21061;-89
2022/01/06 22:54:39;;;;;;;33.75;13.25;;;;;;;;;;6217482;23;20011;-89
2022/01/06 22:57:08;;;;;;;37.97;12.93;;;;;;;;;;6219035;23;20012;-90
2022/01/06 22:59:34;;;;;;;53.47;13.27;;;;;;;;;;6218455;23;20028;-89
2022/01/06 23:01:59;;;;;;;45.67;13.40;;;;;;;;;;6247831;23;20413;-89
2022/01/06 23:04:24;;;;;;;34.85;12.98;;;;;;;;;;6247359;22;20031;-89
2022/01/06 23:06:49;;;;;;;46.08;15.40;;;;;;;;;;6220429;23;19996;-89
2022/01/06 23:09:15;;;;;;;39.83;14.47;;;;;;;;;;6220240;23;20321;-89
2022/01/06 23:11:40;;;;;;;40.90;14.30;;;;;;;;;;6247567;23;20235;-89
2022/01/06 23:14:10;;;;;;;44.72;14.98;;;;;;;;;;6248422;22;20417;-89
2022/01/06 23:16:36;;;;;;;38.25;14.02;;;;;;;;;;6220511;23;20037;-89
2022/01/06 23:19:02;;;;;;;43.13;14.45;;;;;;;;;;6247784;22;20431;-89
2022/01/06 23:21:28;;;;;;;42.28;15.98;;;;;;;;;;6248006;23;20067;-89
2022/01/06 23:23:53;;;;;;;51.10;14.57;;;;;;;;;;6220424;23;19996;-88
2022/01/06 23:26:18;;;;;;;46.67;16.40;;;;;;;;;;6247409;23;20006;-89
2022/01/06 23:28:43;;;;;;;48.70;15.82;;;;;;;;;;6220743;23;19999;-88
2022/01/06 23:31:09;;;;;;;50.60;16.40;;;;;;;;;;6221515;23;20091;-89
2022/01/06 23:33:34;;;;;;;34.67;15.57;;;;;;;;;;6221518;23;20018;-90
2022/01/06 23:35:59;;;;;;;42.08;17.75;;;;;;;;;;6220254;23;20000;-88
2022/01/06 23:38:24;;;;;;;47.33;17.95;;;;;;;;;;6220336;23;20001;-89
2022/01/06 23:40:50;;;;;;;42.83;18.27;;;;;;;;;;6248543;23;20000;-89
2022/01/06 23:43:15;;;;;;;41.20;17.55;;;;;;;;;;6220346;23;20232;-89
2022/01/06 23:45:40;;;;;;;44.85;17.33;;;;;;;;;;6219499;23;20011;-89
2022/01/06 23:48:05;;;;;;;45.97;16.60;;;;;;;;;;6246715;22;19999;-88
2022/01/06 23:50:31;;;;;;;45.45;17.90;;;;;;;;;;6220237;23;20007;-89
2022/01/06 23:52:56;;;;;;;48.63;19.73;;;;;;;;;;6247163;22;19996;-88
2022/01/06 23:55:22;;;;;;;44.33;18.77;;;;;;;;;;6246461;23;20003;-89
2022/01/06 23:57:48;;;;;;;46.15;19.33;;;;;;;;;;6219384;22;20008;-89
